Decoded Metar for UCFM ( in ) (IATA:) | Meteo·Mobile Aviation Weather
aviador You're here:

UCFM Decoded Metar

in
Report Time2019-10-21 07:00:00
UTC Time2019-10-21 07:12:16
Flight Rules vfr VFR
Wind310° at 4 kt
Visibility9999 m
Phenomena:N/A
Clouds:Few CB 066 Hf
Expected CloudBase > 5,600 ft AGL from Temp-Dew spread
CeilingNone
Temp13°C
Dew Point-1°C (38% RH)
AAT9.4°C
QNH1022 hPa
Raw Report
METAR UCFM 210700Z 31002MPS 270V360 9999 FEW066CB 13/M01 Q1022
R26/0///95 NOSIG=

Extra information for UCFM:More info

Social comments